createdAt,value
2018-06-02T00:00:22.850Z,16.50
2018-06-02T00:02:50.351Z,16.60
2018-06-02T00:05:17.894Z,16.50
2018-06-02T00:07:45.654Z,16.50
2018-06-02T00:10:13.140Z,16.50
2018-06-02T00:12:40.788Z,16.50
2018-06-02T00:15:08.291Z,16.50
2018-06-02T00:17:36.520Z,16.60
2018-06-02T00:20:04.029Z,16.50
2018-06-02T00:22:32.256Z,16.50
2018-06-02T00:24:59.741Z,16.50
2018-06-02T00:27:27.220Z,16.50
2018-06-02T00:29:55.575Z,16.50
2018-06-02T00:32:23.057Z,16.50
2018-06-02T00:34:51.318Z,16.50
2018-06-02T00:37:18.810Z,16.50
2018-06-02T00:39:46.305Z,16.50
2018-06-02T00:42:13.810Z,16.50
2018-06-02T00:44:42.056Z,16.50
2018-06-02T00:47:09.670Z,16.50
2018-06-02T00:49:37.123Z,16.50
2018-06-02T00:52:04.629Z,16.50
2018-06-02T00:54:44.049Z,16.50
2018-06-02T00:57:11.518Z,16.50
2018-06-02T00:59:39.025Z,16.50
2018-06-02T01:02:06.580Z,16.40
2018-06-02T01:04:34.812Z,16.40
2018-06-02T01:07:03.538Z,16.40
2018-06-02T01:09:31.883Z,16.40
2018-06-02T01:11:59.423Z,16.40
2018-06-02T01:14:26.905Z,16.40
2018-06-02T01:16:54.376Z,16.40
2018-06-02T01:19:21.850Z,16.40
2018-06-02T01:21:50.084Z,16.40
2018-06-02T01:24:25.323Z,16.40
2018-06-02T01:26:52.771Z,16.40
2018-06-02T01:29:20.988Z,16.40
2018-06-02T01:31:48.651Z,16.40
2018-06-02T01:34:16.139Z,16.40
2018-06-02T01:36:43.599Z,16.40
2018-06-02T01:39:11.272Z,16.40
2018-06-02T01:41:38.761Z,16.40
2018-06-02T01:44:16.331Z,16.40
2018-06-02T01:46:43.764Z,16.40
2018-06-02T01:49:11.319Z,16.40
2018-06-02T01:51:39.546Z,16.40
2018-06-02T01:54:07.053Z,16.40
2018-06-02T01:56:35.280Z,16.40
2018-06-02T01:59:02.844Z,16.40
2018-06-02T02:01:32.334Z,16.40
2018-06-02T02:03:59.856Z,16.40
2018-06-02T02:06:28.087Z,16.30
2018-06-02T02:08:55.555Z,16.40
2018-06-02T02:11:23.029Z,16.30
2018-06-02T02:13:50.501Z,16.30
2018-06-02T02:16:18.837Z,16.30
2018-06-02T02:18:46.303Z,16.30
2018-06-02T02:21:13.788Z,16.30
2018-06-02T02:23:41.269Z,16.30
2018-06-02T02:26:08.787Z,16.30
2018-06-02T02:28:36.265Z,16.30
2018-06-02T02:31:04.707Z,16.30
2018-06-02T02:33:32.160Z,16.30
2018-06-02T02:35:59.642Z,16.30
2018-06-02T02:38:27.167Z,16.30
2018-06-02T02:40:56.686Z,16.30
2018-06-02T02:43:24.167Z,16.20
2018-06-02T02:45:51.628Z,16.30
2018-06-02T02:48:19.100Z,16.30
2018-06-02T02:50:46.660Z,16.30
2018-06-02T02:53:14.897Z,16.30
2018-06-02T02:55:42.392Z,16.30
2018-06-02T02:58:10.624Z,16.30
2018-06-02T03:00:38.194Z,16.30
2018-06-02T03:03:05.657Z,16.30
2018-06-02T03:05:33.128Z,16.20
2018-06-02T03:08:00.608Z,16.30
2018-06-02T03:10:28.857Z,16.30
2018-06-02T03:12:56.340Z,16.20
2018-06-02T03:15:23.800Z,16.20
2018-06-02T03:17:52.138Z,16.20
2018-06-02T03:20:19.611Z,16.20
2018-06-02T03:22:47.192Z,16.30
2018-06-02T03:25:15.427Z,16.20
2018-06-02T03:27:42.928Z,16.20
2018-06-02T03:30:10.411Z,16.20
2018-06-02T03:32:38.060Z,16.20
2018-06-02T03:35:06.284Z,16.30
2018-06-02T03:37:40.595Z,16.30
2018-06-02T03:40:08.068Z,16.20
2018-06-02T03:42:35.545Z,16.30
2018-06-02T03:45:03.120Z,16.30
2018-06-02T03:47:30.627Z,16.30
2018-06-02T03:49:58.208Z,16.30
2018-06-02T03:52:32.480Z,16.30
2018-06-02T03:55:00.008Z,16.30
2018-06-02T03:57:27.536Z,16.30
2018-06-02T03:59:55.048Z,16.30
2018-06-02T04:02:22.547Z,16.30
2018-06-02T04:04:50.323Z,16.30
2018-06-02T04:07:17.875Z,16.20
2018-06-02T04:09:45.374Z,16.20
2018-06-02T04:12:13.689Z,16.30
2018-06-02T04:14:41.178Z,16.30
2018-06-02T04:17:08.671Z,16.30
2018-06-02T04:19:38.008Z,16.30
2018-06-02T04:22:05.495Z,16.30
2018-06-02T04:24:32.996Z,16.30
2018-06-02T04:27:01.279Z,16.30
2018-06-02T04:29:29.565Z,16.40
2018-06-02T04:31:57.902Z,16.40
2018-06-02T04:34:25.373Z,16.30
2018-06-02T04:36:52.944Z,16.40
2018-06-02T04:39:21.196Z,16.40
2018-06-02T04:41:48.744Z,16.40
2018-06-02T04:44:16.258Z,16.40
2018-06-02T04:46:43.757Z,16.40
2018-06-02T04:49:11.280Z,16.50
2018-06-02T04:51:38.952Z,16.50
2018-06-02T04:54:06.431Z,16.50
2018-06-02T04:56:33.932Z,16.50
2018-06-02T04:59:01.469Z,16.50
2018-06-02T05:01:28.972Z,16.50
2018-06-02T05:03:56.512Z,16.50
2018-06-02T05:06:24.855Z,16.60
2018-06-02T05:08:52.332Z,16.50
2018-06-02T05:11:19.859Z,16.60
2018-06-02T05:13:47.361Z,16.60
2018-06-02T05:16:14.912Z,16.60
2018-06-02T05:18:48.484Z,16.60
2018-06-02T05:21:16.173Z,16.60
2018-06-02T05:23:43.661Z,16.70
2018-06-02T05:26:11.159Z,16.70
2018-06-02T05:28:38.669Z,16.70
2018-06-02T05:33:57.496Z,16.60
2018-06-02T05:36:24.998Z,16.60
2018-06-02T05:38:52.471Z,16.60
2018-06-02T05:41:20.813Z,16.70
2018-06-02T05:43:54.333Z,16.60
2018-06-02T05:46:21.830Z,16.70
2018-06-02T05:48:49.344Z,16.70
2018-06-02T05:51:16.903Z,16.70
2018-06-02T05:53:44.478Z,16.70
2018-06-02T05:56:12.757Z,16.70
2018-06-02T05:58:40.330Z,16.70
2018-06-02T06:01:07.833Z,16.70
2018-06-02T06:03:41.233Z,16.70
2018-06-02T06:06:08.722Z,16.80
2018-06-02T06:08:36.399Z,16.80
2018-06-02T06:11:03.941Z,16.80
2018-06-02T06:13:31.429Z,16.80
2018-06-02T06:15:58.972Z,16.80
2018-06-02T06:18:30.611Z,16.80
2018-06-02T06:20:58.132Z,16.80
2018-06-02T06:23:25.641Z,16.80
2018-06-02T06:25:54.080Z,16.80
2018-06-02T06:28:21.635Z,16.80
2018-06-02T06:30:49.147Z,17.00
2018-06-02T06:33:17.485Z,17.00
2018-06-02T06:35:44.992Z,17.00
2018-06-02T06:38:12.522Z,17.00
2018-06-02T06:40:40.227Z,17.00
2018-06-02T06:43:07.800Z,17.00
2018-06-02T06:45:35.301Z,17.00
2018-06-02T06:48:02.840Z,17.00
2018-06-02T06:50:30.339Z,16.90
2018-06-02T06:52:58.637Z,17.00
2018-06-02T06:55:26.242Z,17.00
2018-06-02T06:57:53.723Z,17.00
2018-06-02T07:00:21.273Z,17.00
2018-06-02T07:02:48.926Z,17.00
2018-06-02T07:05:16.534Z,17.00
2018-06-02T07:07:44.149Z,17.10
2018-06-02T07:10:11.716Z,17.10
2018-06-02T07:12:39.243Z,17.10
2018-06-02T07:15:06.926Z,17.20
2018-06-02T07:17:34.481Z,17.20
2018-06-02T07:20:01.993Z,17.20
2018-06-02T07:22:29.596Z,17.20
2018-06-02T07:24:57.930Z,17.20
2018-06-02T07:30:23.939Z,17.30
2018-06-02T07:32:51.595Z,17.30
2018-06-02T07:35:19.141Z,17.40
2018-06-02T07:37:46.774Z,17.40
2018-06-02T07:40:14.289Z,17.50
2018-06-02T07:42:41.869Z,17.60
2018-06-02T07:45:09.501Z,17.60
2018-06-02T07:47:37.015Z,17.70
2018-06-02T07:50:04.684Z,17.80
2018-06-02T07:52:32.231Z,18.00
2018-06-02T07:57:39.192Z,18.20
2018-06-02T08:00:23.445Z,18.40
2018-06-02T08:03:05.813Z,18.40
2018-06-02T08:05:33.565Z,18.40
2018-06-02T08:08:02.860Z,18.40
2018-06-02T08:27:41.169Z,18.60
2018-06-02T08:30:08.936Z,18.60
2018-06-02T08:32:36.743Z,18.60
2018-06-02T08:35:05.404Z,18.60
2018-06-02T11:55:07.661Z,23.40
2018-06-02T11:57:47.949Z,23.40
2018-06-02T12:00:15.470Z,23.60
2018-06-02T12:02:42.965Z,23.70
2018-06-02T12:05:12.794Z,23.80
2018-06-02T12:07:40.802Z,23.70
2018-06-02T12:10:21.295Z,23.40
2018-06-02T12:12:48.844Z,23.30
2018-06-02T12:15:17.166Z,23.50
2018-06-02T12:17:51.832Z,23.50
2018-06-02T12:26:45.149Z,23.40
2018-06-02T12:49:25.834Z,23.60
2018-06-02T12:54:29.305Z,23.90
2018-06-02T12:57:10.492Z,24.00
2018-06-02T12:59:38.156Z,24.10
2018-06-02T13:02:06.601Z,24.00
2018-06-02T13:25:30.421Z,23.40
2018-06-02T13:27:57.986Z,23.30
2018-06-02T13:30:26.920Z,23.40
2018-06-02T13:50:20.845Z,23.30
2018-06-02T13:52:56.378Z,23.20
2018-06-02T14:39:05.971Z,25.60
2018-06-02T14:41:36.214Z,25.60
2018-06-02T14:44:07.332Z,25.30
2018-06-02T14:46:41.975Z,25.30
2018-06-02T14:52:20.385Z,25.40
2018-06-02T14:54:51.282Z,25.60
2018-06-02T14:57:19.880Z,25.70
2018-06-02T15:05:11.407Z,25.70
2018-06-02T15:07:56.522Z,25.80
2018-06-02T15:42:46.861Z,25.80
2018-06-02T15:45:28.046Z,25.90
2018-06-02T15:53:40.275Z,26.10
2018-06-02T16:13:31.305Z,25.40
2018-06-02T16:16:03.173Z,25.30
2018-06-02T16:35:54.620Z,25.00
2018-06-02T17:01:54.497Z,25.20
2018-06-02T17:11:49.450Z,24.90
2018-06-02T17:14:17.832Z,24.50
2018-06-02T17:16:48.146Z,24.50
2018-06-02T17:19:15.903Z,24.40
2018-06-02T17:21:45.010Z,24.30
2018-06-02T18:01:40.550Z,22.60
2018-06-02T18:04:08.093Z,22.50
2018-06-02T18:06:36.991Z,22.30
2018-06-02T18:29:32.648Z,21.90
2018-06-02T18:32:00.260Z,21.90
2018-06-02T18:35:21.535Z,21.80
2018-06-02T18:38:00.328Z,21.80
2018-06-02T18:40:30.882Z,21.60
2018-06-02T18:43:01.095Z,21.60
2018-06-02T18:45:33.880Z,21.60
2018-06-02T18:48:01.485Z,21.60
2018-06-02T18:53:31.606Z,21.30
2018-06-02T18:55:59.300Z,21.30
2018-06-02T18:58:31.434Z,21.30
2018-06-02T19:04:15.151Z,21.20
2018-06-02T19:21:25.744Z,20.80
2018-06-02T19:24:17.995Z,20.70
2018-06-02T19:44:23.681Z,20.30
2018-06-02T19:58:57.271Z,20.10
2018-06-02T20:01:25.705Z,20.10
